首页
METAR-TAF:

METAR-TAF

机场 :

格拉斯哥普雷斯特威克机场

格拉斯哥普雷斯蒂克国际机场, 苏格兰

纬度: 55-30N, 经度: 004-35W, 海拔: 20米

当前天气观测

该预报发布于40分钟前的14:50 UTC
风速11节,风向西南,在南转西南西之间变化
温度 14°C
湿度 94%
气压 1018 hPa
能見度: 6000
少量云层高于1000英尺
散云层高于1400英尺
多云层高于2700英尺
小雨

METAR: EGPK 241450Z 23011KT 200V280 6000 -RA FEW010 SCT014 BKN027 14/13 Q1018

时间: 16:30 (15:30 UTC)

预报

该预报发布于4小时和34分钟前的10:56 UTC
预报有效从24日的 12点(UTC)到 25日的 12点(UTC)
风速12节,风向西转西南
能见度10公里或以上
散云层高于1000英尺
多云层高于1600英尺
短暂存在
从 24日的 12点(UTC)到 24日的 19点(UTC)
能見度: 7000
多云层高于800英尺
小雨, 毛毛雨
几率 30% :
短暂存在
从 24日的 12点(UTC)到 24日的 19点(UTC)
能見度: 4000
多云层高于400英尺
毛毛雨, 雨
成为
从 24日的 17点(UTC)到 24日的 20点(UTC)
风速8节,风向西北
成为
从 25日的 10点(UTC)到 25日的 12点(UTC)
风速12节,风向
几率 30% :
短暂存在
从 25日的 10点(UTC)到 25日的 12点(UTC)
能見度: 6000

TAF: EGPK 241056Z 2412/2512 24012KT 9999 SCT010 BKN016 TEMPO 2412/2419 7000 -RADZ BKN008 PROB30 TEMPO 2412/2419 4000 DZRA BKN004 BECMG 2417/2420 31008KT BECMG 2510/2512 01012KT PROB30 TEMPO 2510/2512 6000 RA

超过4000个机场的气象观测和天气预报(METAR&TAF报告)。

可查询的气象台以黄色和红色小点在地图上表示。

将鼠标移到小点上方,可查看气象台名称。

然后点击查看天气观测和预报。

如需切换地图:点击带黑十字的绿色按钮放大地图;点击带横线的绿色按钮缩小地图;或者点击绿色箭头查看邻近地区的地图。


METAR-TAF: